createdAt,value
2018-05-13T00:01:42.002Z,60.03
2018-05-13T00:04:11.027Z,56.87
2018-05-13T00:06:41.450Z,42.47
2018-05-13T00:09:10.549Z,47.70
2018-05-13T00:11:39.647Z,46.43
2018-05-13T00:14:08.896Z,38.63
2018-05-13T00:16:38.016Z,65.70
2018-05-13T00:19:07.118Z,56.27
2018-05-13T00:21:36.546Z,51.10
2018-05-13T00:24:05.556Z,53.93
2018-05-13T00:26:34.541Z,58.07
2018-05-13T00:29:03.655Z,45.63
2018-05-13T00:31:32.635Z,58.83
2018-05-13T00:34:01.631Z,51.10
2018-05-13T00:36:30.753Z,61.60
2018-05-13T00:38:59.722Z,65.13
2018-05-13T00:41:28.709Z,68.73
2018-05-13T00:43:57.946Z,71.20
2018-05-13T00:46:26.858Z,84.17
2018-05-13T00:48:55.758Z,72.20
2018-05-13T00:51:25.030Z,72.67
2018-05-13T00:53:54.801Z,58.93
2018-05-13T00:56:24.785Z,57.90
2018-05-13T00:58:54.744Z,61.37
2018-05-13T01:01:23.715Z,75.27
2018-05-13T01:03:53.614Z,68.50
2018-05-13T01:06:22.950Z,82.07
2018-05-13T01:08:52.022Z,70.20
2018-05-13T01:11:21.222Z,67.23
2018-05-13T01:13:50.794Z,92.53
2018-05-13T01:16:20.671Z,78.13
2018-05-13T01:18:49.738Z,81.67
2018-05-13T01:21:19.141Z,79.37
2018-05-13T01:23:48.137Z,82.67
2018-05-13T01:26:17.187Z,91.00
2018-05-13T01:28:46.497Z,84.70
2018-05-13T01:31:15.519Z,91.70
2018-05-13T01:33:45.451Z,91.07
2018-05-13T01:36:14.674Z,106.27
2018-05-13T01:38:43.849Z,111.07
2018-05-13T01:41:12.847Z,108.93
2018-05-13T01:43:42.857Z,94.87
2018-05-13T01:46:11.959Z,101.53
2018-05-13T01:48:41.874Z,109.40
2018-05-13T01:51:11.283Z,136.30
2018-05-13T01:53:41.279Z,127.70
2018-05-13T01:56:10.590Z,134.67
2018-05-13T01:58:40.771Z,129.33
2018-05-13T02:01:10.738Z,138.47
2018-05-13T02:03:40.887Z,115.03
2018-05-13T02:06:09.954Z,117.43
2018-05-13T02:08:39.166Z,118.43
2018-05-13T02:11:08.425Z,149.93
2018-05-13T02:13:37.450Z,96.80
2018-05-13T02:16:06.478Z,123.23
2018-05-13T02:18:35.713Z,137.43
2018-05-13T02:21:05.481Z,141.33
2018-05-13T02:23:34.583Z,120.93
2018-05-13T02:26:03.963Z,134.10
2018-05-13T02:28:34.637Z,121.17
2018-05-13T02:31:03.619Z,154.97
2018-05-13T02:33:32.646Z,165.97
2018-05-13T02:36:01.684Z,204.53
2018-05-13T02:38:31.041Z,178.97
2018-05-13T02:41:00.304Z,135.73
2018-05-13T02:43:29.643Z,140.70
2018-05-13T02:45:59.086Z,143.93
2018-05-13T02:48:28.290Z,171.67
2018-05-13T02:50:57.999Z,140.07
2018-05-13T02:53:27.146Z,175.80
2018-05-13T02:55:56.231Z,155.40
2018-05-13T02:58:25.479Z,180.00
2018-05-13T03:00:56.006Z,195.37
2018-05-13T03:03:25.177Z,223.67
2018-05-13T03:05:54.319Z,200.83
2018-05-13T03:08:23.447Z,220.40
2018-05-13T03:10:52.550Z,199.87
2018-05-13T03:13:21.719Z,231.47
2018-05-13T03:15:51.903Z,197.03
2018-05-13T03:18:21.549Z,221.30
2018-05-13T03:20:51.459Z,256.63
2018-05-13T03:23:20.690Z,299.53
2018-05-13T03:25:49.785Z,273.87
2018-05-13T03:28:18.858Z,289.70
2018-05-13T03:30:48.166Z,292.80
2018-05-13T03:33:17.191Z,337.00
2018-05-13T03:35:46.229Z,338.90
2018-05-13T03:38:15.843Z,400.80
2018-05-13T03:40:45.014Z,486.50
2018-05-13T03:43:14.774Z,468.80
2018-05-13T03:45:44.913Z,504.07
2018-05-13T03:48:14.015Z,637.33
2018-05-13T03:50:42.982Z,615.60
2018-05-13T03:53:12.182Z,685.80
2018-05-13T03:55:42.192Z,567.57
2018-05-13T03:58:11.354Z,727.77
2018-05-13T04:00:40.701Z,735.17
2018-05-13T04:03:11.614Z,675.90
2018-05-13T04:05:41.866Z,615.23
2018-05-13T04:11:31.345Z,554.47
2018-05-13T04:14:11.911Z,516.57
2018-05-13T04:16:42.258Z,626.23
2018-05-13T04:19:12.226Z,633.43
2018-05-13T04:21:41.981Z,631.40
2018-05-13T04:24:12.316Z,633.07
2018-05-13T04:26:41.405Z,611.23
2018-05-13T04:29:11.304Z,705.50
2018-05-13T04:31:41.431Z,797.23
2018-05-13T04:34:10.427Z,762.57
2018-05-13T04:36:39.371Z,668.77
2018-05-13T04:39:08.457Z,595.40
2018-05-13T04:41:37.458Z,588.40
2018-05-13T04:44:06.459Z,638.70
2018-05-13T04:46:35.678Z,582.57
2018-05-13T04:49:04.644Z,622.17
2018-05-13T04:51:33.637Z,667.43
2018-05-13T04:54:02.773Z,636.33
2018-05-13T04:56:32.544Z,691.93
2018-05-13T04:59:01.655Z,566.13
2018-05-13T05:01:30.818Z,752.70
2018-05-13T05:04:01.990Z,711.73
2018-05-13T05:06:31.078Z,760.53
2018-05-13T05:09:00.051Z,814.70
2018-05-13T05:11:31.266Z,626.00
2018-05-13T05:14:01.278Z,793.03
2018-05-13T05:16:30.190Z,725.80
2018-05-13T05:18:59.235Z,845.90
2018-05-13T05:21:28.743Z,653.53
2018-05-13T05:23:58.654Z,758.87
2018-05-13T05:26:27.655Z,702.10
2018-05-13T05:28:56.787Z,692.13
2018-05-13T05:31:25.721Z,871.23
2018-05-13T05:33:54.862Z,836.87
2018-05-13T05:36:24.155Z,699.03
2018-05-13T05:38:53.134Z,764.93
2018-05-13T05:41:23.045Z,919.83
2018-05-13T05:43:53.179Z,876.03
2018-05-13T05:46:22.399Z,814.23
2018-05-13T05:48:53.164Z,831.83
2018-05-13T05:51:23.284Z,820.00
2018-05-13T05:53:53.531Z,712.30
2018-05-13T05:56:22.551Z,741.53
2018-05-13T05:58:51.550Z,728.13
2018-05-13T06:01:20.983Z,678.03
2018-05-13T06:03:50.673Z,627.30
2018-05-13T06:06:20.654Z,626.20
2018-05-13T06:08:50.146Z,632.13
2018-05-13T06:11:19.274Z,640.77
2018-05-13T06:13:49.349Z,661.77
2018-05-13T06:16:18.662Z,664.70
2018-05-13T06:18:47.759Z,691.37
2018-05-13T06:21:16.903Z,743.33
2018-05-13T06:23:46.270Z,717.17
2018-05-13T06:26:15.262Z,610.03
2018-05-13T06:28:45.171Z,654.20
2018-05-13T06:31:14.582Z,434.03
2018-05-13T06:33:44.480Z,447.03
2018-05-13T06:36:13.655Z,505.37
2018-05-13T06:38:43.450Z,579.97
2018-05-13T06:41:12.435Z,533.47
2018-05-13T06:43:41.486Z,435.57
2018-05-13T06:46:10.327Z,550.40
2018-05-13T06:48:39.322Z,621.60
2018-05-13T06:51:08.391Z,687.20
2018-05-13T06:53:38.431Z,629.60
2018-05-13T06:56:07.494Z,511.37
2018-05-13T06:58:36.495Z,498.93
2018-05-13T07:01:22.056Z,473.37
2018-05-13T07:03:52.674Z,506.20
2018-05-13T07:06:22.986Z,579.77
2018-05-13T07:08:52.746Z,552.53
2018-05-13T07:11:21.742Z,597.17
2018-05-13T07:13:51.885Z,521.30
2018-05-13T07:16:20.985Z,518.03
2018-05-13T07:18:51.061Z,522.93
2018-05-13T07:21:20.931Z,475.00
2018-05-13T07:23:49.923Z,423.43
2018-05-13T07:26:18.987Z,413.00
2018-05-13T07:28:49.310Z,417.03
2018-05-13T07:31:18.411Z,449.73
2018-05-13T07:33:48.705Z,410.97
2018-05-13T07:36:18.039Z,405.93
2018-05-13T07:38:47.951Z,432.07
2018-05-13T07:41:17.147Z,435.70
2018-05-13T07:43:46.732Z,337.87
2018-05-13T07:46:16.571Z,286.63
2018-05-13T07:48:46.326Z,301.30
2018-05-13T07:51:16.752Z,292.07
2018-05-13T07:53:45.602Z,276.33
2018-05-13T07:56:15.080Z,283.20
2018-05-13T07:58:43.986Z,358.53
2018-05-13T08:01:13.842Z,322.27
2018-05-13T08:03:43.980Z,318.10
2018-05-13T08:06:13.270Z,324.07
2018-05-13T08:08:45.473Z,240.07
2018-05-13T08:11:14.839Z,336.30
2018-05-13T08:13:43.911Z,318.60
2018-05-13T08:16:13.572Z,325.57
2018-05-13T08:18:42.499Z,278.17
2018-05-13T08:21:11.490Z,300.57
2018-05-13T08:23:40.647Z,262.10
2018-05-13T08:26:09.888Z,294.80
2018-05-13T08:28:39.063Z,301.67
2018-05-13T08:31:08.330Z,287.67
2018-05-13T08:33:37.426Z,286.30
2018-05-13T08:36:06.506Z,270.13
2018-05-13T08:38:36.075Z,200.60
2018-05-13T08:41:05.151Z,196.23
2018-05-13T08:43:34.082Z,199.67
2018-05-13T08:46:03.606Z,209.93
2018-05-13T08:48:32.815Z,223.53
2018-05-13T08:51:01.996Z,271.63
2018-05-13T08:53:31.779Z,244.93
2018-05-13T08:56:01.758Z,295.17
2018-05-13T08:58:30.839Z,230.50
2018-05-13T09:01:00.311Z,204.17
2018-05-13T09:03:29.229Z,281.97
2018-05-13T09:05:59.138Z,277.13
2018-05-13T09:08:28.828Z,250.23
2018-05-13T09:10:57.777Z,210.43
2018-05-13T09:13:26.786Z,211.33
2018-05-13T09:15:55.907Z,196.27
2018-05-13T09:18:24.863Z,222.40
2018-05-13T09:20:54.008Z,281.67
2018-05-13T09:23:24.253Z,205.40
2018-05-13T09:25:53.254Z,229.13
2018-05-13T09:28:23.147Z,226.77
2018-05-13T09:30:52.883Z,240.40
2018-05-13T09:33:22.775Z,237.07
2018-05-13T09:35:51.951Z,257.23
2018-05-13T09:38:21.294Z,205.80
2018-05-13T09:40:50.396Z,211.63
2018-05-13T09:43:20.363Z,221.35
2018-05-13T09:45:49.637Z,245.40
2018-05-13T09:48:18.735Z,210.53
2018-05-13T09:50:47.726Z,240.60
2018-05-13T09:53:17.134Z,269.90
2018-05-13T09:55:46.104Z,210.20
2018-05-13T09:58:16.071Z,246.20
2018-05-13T10:00:45.348Z,219.07
2018-05-13T10:03:14.447Z,187.60
2018-05-13T10:05:43.515Z,201.67
2018-05-13T10:08:14.455Z,215.77
2018-05-13T10:10:43.557Z,213.07
2018-05-13T10:13:12.575Z,335.65
2018-05-13T10:15:42.483Z,454.80
2018-05-13T10:18:11.655Z,462.17
2018-05-13T10:20:40.778Z,469.03
2018-05-13T10:23:10.159Z,472.00
2018-05-13T10:25:39.336Z,499.03
2018-05-13T10:28:08.488Z,489.70
2018-05-13T10:30:37.827Z,538.13
2018-05-13T10:33:07.040Z,497.73
2018-05-13T10:35:36.256Z,494.87
2018-05-13T10:38:05.451Z,487.57
2018-05-13T10:40:34.583Z,513.63
2018-05-13T10:43:03.678Z,508.27
2018-05-13T10:45:33.627Z,510.90
2018-05-13T10:48:02.849Z,491.67
2018-05-13T10:50:32.023Z,492.67
2018-05-13T10:53:01.087Z,474.33
2018-05-13T10:55:29.878Z,486.57
2018-05-13T10:57:59.046Z,474.23
2018-05-13T11:00:28.404Z,483.80
2018-05-13T11:02:57.378Z,467.23
2018-05-13T11:05:26.449Z,467.10
2018-05-13T11:07:56.558Z,456.40
2018-05-13T11:10:26.878Z,449.33
2018-05-13T11:12:56.047Z,449.20
2018-05-13T11:15:25.730Z,454.60
2018-05-13T11:17:54.795Z,399.73
2018-05-13T11:20:23.899Z,370.57
2018-05-13T11:22:53.907Z,398.83
2018-05-13T11:25:23.002Z,381.33
2018-05-13T11:27:52.030Z,371.40
2018-05-13T11:30:21.313Z,346.07
2018-05-13T11:32:51.278Z,338.60
2018-05-13T11:35:20.415Z,307.50
2018-05-13T11:37:50.470Z,317.03
2018-05-13T11:40:19.721Z,311.40
2018-05-13T11:42:48.895Z,331.27
2018-05-13T11:45:18.062Z,338.73
2018-05-13T11:47:47.163Z,320.47
2018-05-13T11:50:16.235Z,287.07
2018-05-13T11:52:45.634Z,328.27
2018-05-13T11:55:15.605Z,319.03
2018-05-13T11:57:44.219Z,311.83
2018-05-13T12:00:23.406Z,303.70
2018-05-13T12:02:52.470Z,332.33
2018-05-13T12:05:22.442Z,305.47
2018-05-13T12:07:51.818Z,308.90
2018-05-13T12:10:20.910Z,308.73
2018-05-13T12:12:50.902Z,302.93
2018-05-13T12:15:20.400Z,353.67
2018-05-13T12:17:49.502Z,381.53
2018-05-13T12:20:18.627Z,473.20
2018-05-13T12:22:48.174Z,464.40
2018-05-13T12:25:18.019Z,465.37
2018-05-13T12:27:48.895Z,481.07
2018-05-13T12:30:17.531Z,483.03
2018-05-13T12:32:47.195Z,429.70
2018-05-13T12:35:16.661Z,432.43
2018-05-13T12:37:45.846Z,429.90
2018-05-13T12:40:15.024Z,425.70
2018-05-13T12:42:44.826Z,432.33
2018-05-13T12:45:13.706Z,397.33
2018-05-13T12:47:42.771Z,446.13
2018-05-13T12:50:11.966Z,361.73
2018-05-13T12:52:41.931Z,388.17
2018-05-13T12:55:11.669Z,326.87
2018-05-13T12:57:40.615Z,323.17
2018-05-13T13:00:09.561Z,315.90
2018-05-13T13:02:38.350Z,312.10
2018-05-13T13:05:08.343Z,303.10
2018-05-13T13:07:37.836Z,245.97
2018-05-13T13:10:08.416Z,279.73
2018-05-13T13:12:37.606Z,282.83
2018-05-13T13:15:07.676Z,235.57
2018-05-13T13:17:37.016Z,217.33
2018-05-13T13:20:06.212Z,202.90
2018-05-13T13:22:35.654Z,223.00
2018-05-13T13:25:04.846Z,165.97
2018-05-13T13:27:33.951Z,181.23
2018-05-13T13:30:03.183Z,153.23
2018-05-13T13:32:32.247Z,181.33
2018-05-13T13:35:01.277Z,150.27
2018-05-13T13:37:30.418Z,189.87
2018-05-13T13:39:59.367Z,171.47
2018-05-13T13:42:28.362Z,175.77
2018-05-13T13:44:57.655Z,193.23
2018-05-13T13:47:26.907Z,183.73
2018-05-13T13:49:56.747Z,184.90
2018-05-13T13:52:26.967Z,179.67
2018-05-13T13:54:56.063Z,185.30
2018-05-13T13:57:32.351Z,152.70
2018-05-13T14:00:18.752Z,160.20
2018-05-13T14:02:49.630Z,190.87
2018-05-13T14:05:18.798Z,165.73
2018-05-13T14:07:47.798Z,169.90
2018-05-13T14:10:17.052Z,174.43
2018-05-13T14:12:45.990Z,182.80
2018-05-13T14:15:16.710Z,163.17
2018-05-13T14:17:46.168Z,178.17
2018-05-13T14:20:15.254Z,178.90
2018-05-13T14:22:46.125Z,164.80
2018-05-13T14:25:16.459Z,152.07
2018-05-13T14:27:48.447Z,168.23
2018-05-13T14:30:18.072Z,155.40
2018-05-13T14:32:47.151Z,157.57
2018-05-13T14:35:16.333Z,161.13
2018-05-13T14:37:46.239Z,147.07
2018-05-13T14:40:21.618Z,153.13
2018-05-13T14:42:52.440Z,178.07
2018-05-13T14:45:22.348Z,169.10
2018-05-13T14:47:53.963Z,157.43
2018-05-13T14:50:23.892Z,159.37
2018-05-13T14:52:58.821Z,157.83
2018-05-13T14:55:33.163Z,146.43
2018-05-13T14:58:13.848Z,159.40
2018-05-13T15:00:43.856Z,161.73
2018-05-13T15:03:16.969Z,144.30
2018-05-13T15:05:46.840Z,136.93
2018-05-13T15:08:15.678Z,113.03
2018-05-13T15:10:45.093Z,125.00
2018-05-13T15:13:14.155Z,162.93
2018-05-13T15:15:45.083Z,132.77
2018-05-13T15:18:14.015Z,130.33
2018-05-13T15:20:43.079Z,122.27
2018-05-13T15:23:13.103Z,128.27
2018-05-13T15:25:42.352Z,136.90
2018-05-13T15:28:11.275Z,140.90
2018-05-13T15:30:40.519Z,104.63
2018-05-13T15:33:09.752Z,114.97
2018-05-13T15:35:39.510Z,114.93
2018-05-13T15:38:08.530Z,99.83
2018-05-13T15:40:37.685Z,116.50
2018-05-13T15:43:06.771Z,109.60
2018-05-13T15:45:35.999Z,105.97
2018-05-13T15:48:05.994Z,105.80
2018-05-13T15:50:34.939Z,94.77
2018-05-13T15:53:04.561Z,101.87
2018-05-13T15:55:34.415Z,125.93
2018-05-13T15:58:03.402Z,106.90
2018-05-13T16:00:32.590Z,91.63
2018-05-13T16:03:01.623Z,103.60
2018-05-13T16:05:30.870Z,101.77
2018-05-13T16:08:00.276Z,112.00
2018-05-13T16:10:29.403Z,102.03
2018-05-13T16:12:58.243Z,103.17
2018-05-13T16:15:28.336Z,102.03
2018-05-13T16:17:58.298Z,94.37
2018-05-13T16:20:27.899Z,120.00
2018-05-13T16:22:56.742Z,84.20
2018-05-13T16:25:26.697Z,105.87
2018-05-13T16:27:55.828Z,95.57
2018-05-13T16:30:24.886Z,125.90
2018-05-13T16:32:54.767Z,107.63
2018-05-13T16:35:24.687Z,91.67
2018-05-13T16:37:53.724Z,118.53
2018-05-13T16:40:22.868Z,89.70
2018-05-13T16:42:52.089Z,108.90
2018-05-13T16:45:21.003Z,110.07
2018-05-13T16:47:50.706Z,104.63
2018-05-13T16:50:20.015Z,113.83
2018-05-13T16:52:49.193Z,107.30
2018-05-13T16:55:18.087Z,94.93
2018-05-13T16:57:47.682Z,117.73
2018-05-13T17:00:16.685Z,99.10
2018-05-13T17:02:45.883Z,109.47
2018-05-13T17:05:15.965Z,88.70
2018-05-13T17:07:45.713Z,114.07
2018-05-13T17:10:14.508Z,124.40
2018-05-13T17:12:44.078Z,107.13
2018-05-13T17:15:13.011Z,133.30
2018-05-13T17:17:43.740Z,104.90
2018-05-13T17:20:13.507Z,78.43
2018-05-13T17:22:42.333Z,90.37
2018-05-13T17:25:11.539Z,90.37
2018-05-13T17:27:40.438Z,94.10
2018-05-13T17:30:09.482Z,77.23
2018-05-13T17:32:38.638Z,80.23
2018-05-13T17:35:07.615Z,73.60
2018-05-13T17:37:36.670Z,89.30
2018-05-13T17:40:05.850Z,91.13
2018-05-13T17:42:35.513Z,80.70
2018-05-13T17:45:04.650Z,95.03
2018-05-13T17:47:34.566Z,85.47
2018-05-13T17:50:03.412Z,79.27
2018-05-13T17:52:32.341Z,79.93
2018-05-13T17:55:01.654Z,78.00
2018-05-13T17:57:30.855Z,93.00
2018-05-13T17:59:59.919Z,82.87
2018-05-13T18:02:29.154Z,71.27
2018-05-13T18:04:58.015Z,76.73
2018-05-13T18:07:27.266Z,79.67
2018-05-13T18:09:57.235Z,72.53
2018-05-13T18:12:26.103Z,74.17
2018-05-13T18:14:55.851Z,70.90
2018-05-13T18:17:25.982Z,93.77
2018-05-13T18:19:55.550Z,78.57
2018-05-13T18:22:25.689Z,68.77
2018-05-13T18:24:55.409Z,67.73
2018-05-13T18:27:25.350Z,74.50
2018-05-13T18:29:55.078Z,86.03
2018-05-13T18:32:24.794Z,70.83
2018-05-13T18:34:53.730Z,80.97
2018-05-13T18:37:22.559Z,75.47
2018-05-13T18:39:52.262Z,76.50
2018-05-13T18:42:21.323Z,71.90
2018-05-13T18:44:50.103Z,77.97
2018-05-13T18:47:19.425Z,68.70
2018-05-13T18:49:48.194Z,76.87
2018-05-13T18:52:17.198Z,75.37
2018-05-13T18:54:46.489Z,73.57
2018-05-13T18:57:16.314Z,76.57
2018-05-13T18:59:45.319Z,69.50
2018-05-13T19:02:14.568Z,54.80
2018-05-13T19:04:43.670Z,81.87
2018-05-13T19:07:13.198Z,60.77
2018-05-13T19:09:42.342Z,58.10
2018-05-13T19:12:11.512Z,65.50
2018-05-13T19:14:40.592Z,53.30
2018-05-13T19:17:09.711Z,72.80
2018-05-13T19:19:38.698Z,63.77
2018-05-13T19:22:07.623Z,62.83
2018-05-13T19:24:38.932Z,59.90
2018-05-13T19:27:07.866Z,57.33
2018-05-13T19:29:36.886Z,70.93
2018-05-13T19:32:05.931Z,75.57
2018-05-13T19:34:34.917Z,55.93
2018-05-13T19:37:03.796Z,59.20
2018-05-13T19:39:33.470Z,67.77
2018-05-13T19:42:02.415Z,62.00
2018-05-13T19:44:31.026Z,64.30
2018-05-13T19:47:01.021Z,51.27
2018-05-13T19:49:29.894Z,58.20
2018-05-13T19:51:58.810Z,59.17
2018-05-13T19:54:28.233Z,60.20
2018-05-13T19:56:57.817Z,62.50
2018-05-13T19:59:26.595Z,53.93
2018-05-13T20:01:55.651Z,51.33
2018-05-13T20:04:25.517Z,65.20
2018-05-13T20:06:54.510Z,54.33
2018-05-13T20:09:23.747Z,64.83
2018-05-13T20:11:53.421Z,57.03
2018-05-13T20:14:22.582Z,62.23
2018-05-13T20:16:51.578Z,59.33
2018-05-13T20:19:21.226Z,59.50
2018-05-13T20:21:50.326Z,55.30
2018-05-13T20:24:19.418Z,73.23
2018-05-13T20:26:49.434Z,67.90
2018-05-13T20:29:18.739Z,62.43
2018-05-13T20:31:47.566Z,60.80
2018-05-13T20:34:16.582Z,60.20
2018-05-13T20:36:46.441Z,50.83
2018-05-13T20:39:15.431Z,47.47
2018-05-13T20:41:44.327Z,58.43
2018-05-13T20:44:13.761Z,61.57
2018-05-13T20:46:42.626Z,61.47
2018-05-13T20:49:11.402Z,54.73
2018-05-13T20:51:40.538Z,69.00
2018-05-13T20:54:10.054Z,65.83
2018-05-13T20:56:38.794Z,47.10
2018-05-13T20:59:07.948Z,52.33
2018-05-13T21:01:37.816Z,59.57
2018-05-13T21:04:06.973Z,59.60
2018-05-13T21:06:36.022Z,58.30
2018-05-13T21:09:05.095Z,51.60
2018-05-13T21:11:34.002Z,66.87
2018-05-13T21:14:03.107Z,58.13
2018-05-13T21:16:31.994Z,49.30
2018-05-13T21:19:00.942Z,64.13
2018-05-13T21:21:30.038Z,62.23
2018-05-13T21:23:59.584Z,52.20
2018-05-13T21:26:28.482Z,61.43
2018-05-13T21:28:59.554Z,61.20
2018-05-13T21:31:29.013Z,61.40
2018-05-13T21:33:57.754Z,54.33
2018-05-13T21:36:27.797Z,59.97
2018-05-13T21:38:56.566Z,59.60
2018-05-13T21:41:26.398Z,66.20
2018-05-13T21:43:56.591Z,61.33
2018-05-13T21:46:26.294Z,57.07
2018-05-13T21:48:55.352Z,57.43
2018-05-13T21:51:25.491Z,61.83
2018-05-13T21:53:54.268Z,63.77
2018-05-13T21:56:23.178Z,72.90
2018-05-13T21:58:52.135Z,66.07
2018-05-13T22:01:21.143Z,50.17
2018-05-13T22:03:50.241Z,54.10
2018-05-13T22:06:19.262Z,65.50
2018-05-13T22:08:48.243Z,62.47
2018-05-13T22:11:18.158Z,72.57
2018-05-13T22:13:47.425Z,56.43
2018-05-13T22:16:16.826Z,58.33
2018-05-13T22:18:45.594Z,56.80
2018-05-13T22:21:14.887Z,54.73
2018-05-13T22:23:44.462Z,62.47
2018-05-13T22:26:13.253Z,68.93
2018-05-13T22:28:42.463Z,69.87
2018-05-13T22:31:12.666Z,58.43
2018-05-13T22:33:41.670Z,57.87
2018-05-13T22:36:10.930Z,54.83
2018-05-13T22:38:39.618Z,46.13
2018-05-13T22:41:09.371Z,89.33
2018-05-13T22:43:38.569Z,67.50
2018-05-13T22:46:07.552Z,63.63
2018-05-13T22:48:36.729Z,61.23
2018-05-13T22:51:06.790Z,74.67
2018-05-13T22:53:35.868Z,59.47
2018-05-13T22:56:04.982Z,77.53
2018-05-13T22:58:34.486Z,52.93
2018-05-13T23:01:03.464Z,68.03
2018-05-13T23:03:32.379Z,64.27
2018-05-13T23:06:01.784Z,64.53
2018-05-13T23:08:30.916Z,82.90
2018-05-13T23:10:59.984Z,74.27
2018-05-13T23:13:29.518Z,74.60
2018-05-13T23:15:58.673Z,58.00
2018-05-13T23:18:27.830Z,66.87
2018-05-13T23:20:57.278Z,65.47
2018-05-13T23:23:26.307Z,67.73
2018-05-13T23:25:55.471Z,61.70
2018-05-13T23:28:24.721Z,78.93
2018-05-13T23:30:53.769Z,82.43
2018-05-13T23:33:23.569Z,97.10
2018-05-13T23:35:53.598Z,84.87
2018-05-13T23:38:22.627Z,84.93
2018-05-13T23:40:51.699Z,116.23
2018-05-13T23:43:21.751Z,101.97
2018-05-13T23:45:51.010Z,86.43
2018-05-13T23:48:20.115Z,120.63
2018-05-13T23:50:49.545Z,99.80
2018-05-13T23:53:18.394Z,112.80
2018-05-13T23:55:47.407Z,109.83
2018-05-13T23:58:16.837Z,120.07
